createdAt,value
2018-07-05T00:02:28.626Z,17.92
2018-07-05T00:05:08.184Z,17.93
2018-07-05T00:07:47.618Z,17.85
2018-07-05T00:10:27.092Z,17.85
2018-07-05T00:13:06.568Z,17.83
2018-07-05T00:15:45.860Z,17.88
2018-07-05T00:18:25.140Z,17.91
2018-07-05T00:21:04.515Z,17.82
2018-07-05T00:23:44.052Z,17.75
2018-07-05T00:26:23.343Z,17.81
2018-07-05T00:29:02.671Z,17.75
2018-07-05T00:31:42.132Z,17.63
2018-07-05T00:34:21.652Z,17.64
2018-07-05T00:37:01.189Z,17.66
2018-07-05T00:39:40.776Z,17.57
2018-07-05T00:42:20.241Z,17.57
2018-07-05T00:45:00.521Z,17.39
2018-07-05T00:47:40.048Z,17.24
2018-07-05T00:50:19.652Z,17.07
2018-07-05T00:52:59.040Z,17.03
2018-07-05T00:55:38.596Z,16.94
2018-07-05T00:58:17.866Z,17.04
2018-07-05T01:00:57.284Z,17.16
2018-07-05T01:03:36.817Z,17.20
2018-07-05T01:06:16.310Z,17.09
2018-07-05T01:08:55.825Z,17.12
2018-07-05T01:11:35.260Z,17.08
2018-07-05T01:14:14.649Z,16.95
2018-07-05T01:16:54.105Z,16.90
2018-07-05T01:19:33.651Z,16.90
2018-07-05T01:22:13.068Z,16.97
2018-07-05T01:24:52.545Z,16.99
2018-07-05T01:27:36.382Z,17.00
2018-07-05T01:30:16.334Z,17.03
2018-07-05T01:32:55.832Z,17.03
2018-07-05T01:35:35.594Z,16.97
2018-07-05T01:38:15.240Z,16.97
2018-07-05T01:40:54.728Z,17.02
2018-07-05T01:43:33.956Z,17.11
2018-07-05T01:46:13.476Z,17.18
2018-07-05T01:48:52.895Z,17.35
2018-07-05T01:51:33.529Z,17.49
2018-07-05T01:54:13.103Z,17.43
2018-07-05T01:56:52.541Z,17.22
2018-07-05T01:59:31.962Z,17.09
2018-07-05T02:02:11.269Z,16.98
2018-07-05T02:04:50.729Z,16.93
2018-07-05T02:07:30.188Z,16.95
2018-07-05T02:10:09.620Z,16.98
2018-07-05T02:12:49.170Z,17.04
2018-07-05T02:15:28.645Z,17.01
2018-07-05T02:18:08.055Z,17.02
2018-07-05T02:20:47.384Z,17.15
2018-07-05T02:23:26.591Z,17.15
2018-07-05T02:26:06.012Z,17.21
2018-07-05T02:28:45.504Z,17.22
2018-07-05T02:31:24.907Z,17.40
2018-07-05T02:34:11.067Z,17.39
2018-07-05T02:36:50.536Z,17.35
2018-07-05T02:39:35.492Z,16.96
2018-07-05T02:42:15.204Z,16.69
2018-07-05T02:44:55.079Z,16.50
2018-07-05T02:47:34.714Z,16.39
2018-07-05T02:50:14.552Z,16.29
2018-07-05T02:52:54.039Z,16.31
2018-07-05T02:55:33.441Z,16.26
2018-07-05T02:58:12.948Z,16.23
2018-07-05T03:00:52.472Z,16.08
2018-07-05T03:03:32.053Z,16.06
2018-07-05T03:06:11.376Z,16.10
2018-07-05T03:08:50.788Z,16.02
2018-07-05T03:11:30.172Z,16.15
2018-07-05T03:14:09.568Z,16.24
2018-07-05T03:16:48.932Z,16.30
2018-07-05T03:19:28.370Z,16.39
2018-07-05T03:22:07.864Z,16.21
2018-07-05T03:24:47.335Z,16.25
2018-07-05T03:27:26.817Z,16.33
2018-07-05T03:30:06.245Z,16.20
2018-07-05T03:32:45.766Z,16.16
2018-07-05T03:35:25.404Z,16.46
2018-07-05T03:38:04.763Z,16.49
2018-07-05T03:40:44.143Z,16.51
2018-07-05T03:43:23.508Z,16.63
2018-07-05T03:46:02.997Z,16.58
2018-07-05T03:48:42.534Z,16.50
2018-07-05T03:51:21.830Z,16.67
2018-07-05T03:54:01.491Z,16.73
2018-07-05T03:56:40.912Z,16.77
2018-07-05T03:59:20.295Z,16.97
2018-07-05T04:01:59.817Z,17.17
2018-07-05T04:04:39.661Z,17.23
2018-07-05T04:07:19.312Z,17.35
2018-07-05T04:09:58.911Z,17.41
2018-07-05T04:12:38.255Z,17.62
2018-07-05T04:15:17.697Z,17.79
2018-07-05T22:02:48.783Z,18.06
2018-07-05T22:05:28.272Z,18.06
2018-07-05T22:08:07.855Z,18.05
2018-07-05T22:10:47.301Z,17.94
2018-07-05T22:13:26.641Z,17.83
2018-07-05T22:16:06.202Z,17.81
2018-07-05T22:18:51.185Z,17.82
2018-07-05T22:21:30.757Z,17.81
2018-07-05T22:24:15.689Z,17.89
2018-07-05T22:26:55.298Z,17.95
2018-07-05T22:29:39.964Z,17.90
2018-07-05T22:32:19.846Z,17.86
2018-07-05T22:34:59.245Z,17.88
2018-07-05T22:37:38.827Z,17.88
2018-07-05T22:40:18.312Z,17.84
2018-07-05T22:42:57.928Z,17.87
2018-07-05T22:45:37.548Z,17.77
2018-07-05T22:48:16.882Z,17.76
2018-07-05T22:50:56.329Z,17.72
2018-07-05T22:53:35.914Z,17.77
2018-07-05T22:56:15.443Z,17.69
2018-07-05T22:58:54.892Z,17.62
2018-07-05T23:01:34.297Z,17.73
2018-07-05T23:04:13.998Z,17.73
2018-07-05T23:06:53.743Z,17.84
2018-07-05T23:09:33.132Z,17.84
2018-07-05T23:12:12.591Z,17.92
2018-07-05T23:14:52.013Z,17.75
2018-07-05T23:17:32.446Z,17.78
2018-07-05T23:20:12.004Z,17.81
2018-07-05T23:22:51.638Z,17.84
2018-07-05T23:25:31.151Z,17.99
2018-07-05T23:28:10.643Z,17.99
2018-07-05T23:30:50.248Z,17.91
2018-07-05T23:33:29.804Z,17.70
2018-07-05T23:36:09.912Z,17.66
2018-07-05T23:38:49.400Z,17.75
2018-07-05T23:41:28.936Z,17.80
2018-07-05T23:44:08.308Z,17.83
2018-07-05T23:46:47.601Z,17.64
2018-07-05T23:49:26.989Z,17.62
2018-07-05T23:52:06.465Z,17.45
2018-07-05T23:54:46.000Z,17.53
2018-07-05T23:57:25.523Z,17.41
